Time;durP1;ratioP1;P1;durP2;ratioP2;P2;SDS_P1;SDS_P2;PMS_P1;PMS_P2;Temp;Humidity;BMP_temperature;BMP_pressure;BME280_temperature;BME280_humidity;BME280_pressure;Samples;Min_cycle;Max_cycle;Signal;HPM_P1;HPM_P2
2023/07/29 00:01:43;;;;;;;4.50;1.30;;;21.10;99.90;;;;;;7289077;19;20196;-76
2023/07/29 00:04:09;;;;;;;2.17;1.10;;;21.00;99.90;;;;;;7304826;19;20207;-77
2023/07/29 00:06:35;;;;;;;1.97;1.03;;;20.90;99.90;;;;;;7282603;19;20192;-77
2023/07/29 00:09:02;;;;;;;3.90;1.40;;;20.90;99.90;;;;;;7281253;19;20650;-77
2023/07/29 00:11:28;;;;;;;3.73;1.00;;;20.90;99.90;;;;;;7282003;19;20198;-77
2023/07/29 00:13:54;;;;;;;2.50;1.33;;;20.90;99.90;;;;;;7283816;19;20210;-76
2023/07/29 00:16:22;;;;;;;3.07;1.10;;;20.90;99.90;;;;;;7285147;19;20191;-76
2023/07/29 00:18:48;;;;;;;4.33;1.20;;;20.80;99.90;;;;;;7282452;19;20290;-77
2023/07/29 00:21:14;;;;;;;3.47;1.10;;;20.80;99.90;;;;;;7284634;19;20215;-76
2023/07/29 00:23:39;;;;;;;4.80;1.70;;;20.80;99.90;;;;;;7305050;19;20185;-77
2023/07/29 00:26:05;;;;;;;3.83;1.40;;;20.70;99.90;;;;;;7282079;19;20684;-77
2023/07/29 00:28:31;;;;;;;4.37;1.57;;;20.60;99.90;;;;;;7284070;19;20211;-77
2023/07/29 00:30:58;;;;;;;7.07;1.37;;;20.50;99.90;;;;;;7282589;19;20548;-78
2023/07/29 00:33:24;;;;;;;4.63;1.47;;;20.50;99.90;;;;;;7281668;19;20191;-77
2023/07/29 00:35:50;;;;;;;6.20;1.57;;;20.50;99.90;;;;;;7287876;19;20192;-77
2023/07/29 00:38:16;;;;;;;3.00;1.20;;;20.50;99.90;;;;;;7288164;19;20630;-77
2023/07/29 00:40:43;;;;;;;3.23;1.70;;;20.50;99.90;;;;;;7310743;19;20844;-77
2023/07/29 00:43:09;;;;;;;2.50;1.33;;;20.50;99.90;;;;;;7288285;19;20187;-76
2023/07/29 00:45:35;;;;;;;2.50;1.30;;;20.50;99.90;;;;;;7287075;19;20194;-77
2023/07/29 00:48:03;;;;;;;4.37;1.20;;;20.40;99.90;;;;;;7288394;19;20199;-77
2023/07/29 00:50:29;;;;;;;5.20;1.40;;;20.30;99.90;;;;;;7283221;19;20192;-77
2023/07/29 00:52:56;;;;;;;4.53;1.33;;;20.30;99.90;;;;;;7282430;19;20194;-77
2023/07/29 00:55:23;;;;;;;3.30;1.60;;;20.30;99.90;;;;;;7281915;19;20190;-77
2023/07/29 00:57:51;;;;;;;5.90;1.53;;;20.30;99.90;;;;;;7281146;19;20206;-78
2023/07/29 01:00:17;;;;;;;4.00;1.47;;;20.20;99.90;;;;;;7281379;19;20191;-76
2023/07/29 01:02:43;;;;;;;5.87;1.80;;;20.20;99.90;;;;;;7295021;19;20702;-76
2023/07/29 01:05:12;;;;;;;3.30;1.20;;;20.20;99.90;;;;;;7302163;19;20196;-76
2023/07/29 01:08:04;;;;;;;5.17;1.43;;;20.20;99.90;;;;;;7280778;19;20210;-76
2023/07/29 01:11:07;;;;;;;2.87;1.20;;;20.10;99.90;;;;;;7178337;19;2005037;-76
2023/07/29 01:13:44;;;;;;;5.03;1.47;;;20.20;99.90;;;;;;7179191;19;2004738;-76
2023/07/29 01:16:43;;;;;;;7.87;1.67;;;20.10;99.90;;;;;;7282507;19;20191;-76
2023/07/29 01:19:25;;;;;;;5.03;1.63;;;20.10;99.90;;;;;;7179038;19;2004581;-77
2023/07/29 01:21:51;;;;;;;3.40;1.60;;;20.10;99.90;;;;;;7177497;19;2004530;-76
2023/07/29 01:24:17;;;;;;;5.83;1.73;;;20.20;99.90;;;;;;7280230;19;20220;-76
2023/07/29 01:26:43;;;;;;;5.67;1.60;;;20.00;99.90;;;;;;7292026;19;20649;-76
2023/07/29 01:29:09;;;;;;;5.70;1.43;;;19.90;99.90;;;;;;7303043;19;20190;-77
2023/07/29 01:31:44;;;;;;;5.90;1.67;;;19.90;99.90;;;;;;7280855;19;20312;-76
2023/07/29 01:34:19;;;;;;;3.97;1.73;;;19.90;99.90;;;;;;7279277;19;20192;-76
2023/07/29 01:36:46;;;;;;;5.43;1.57;;;19.90;99.90;;;;;;7257641;19;20193;-76
2023/07/29 01:39:14;;;;;;;5.53;1.60;;;19.80;99.90;;;;;;7303227;19;20188;-76
2023/07/29 01:41:40;;;;;;;3.47;1.67;;;19.80;99.90;;;;;;7280219;19;20218;-76
2023/07/29 01:44:08;;;;;;;4.70;1.73;;;19.80;99.90;;;;;;7279424;19;20848;-76
2023/07/29 01:46:34;;;;;;;4.03;1.60;;;19.80;99.90;;;;;;7278579;19;20259;-76
2023/07/29 01:49:00;;;;;;;6.77;1.80;;;19.80;99.90;;;;;;7281618;19;20182;-76
2023/07/29 01:51:25;;;;;;;2.90;1.50;;;19.80;99.90;;;;;;7279563;19;20556;-76
2023/07/29 01:53:51;;;;;;;5.23;1.97;;;19.80;99.90;;;;;;7280280;19;20191;-76
2023/07/29 01:56:17;;;;;;;5.90;1.60;;;19.80;99.90;;;;;;7277190;19;20185;-76
2023/07/29 01:58:50;;;;;;;6.97;1.53;;;19.70;99.90;;;;;;7279676;19;20224;-76
2023/07/29 02:01:16;;;;;;;5.40;1.83;;;19.70;99.90;;;;;;7280318;19;20904;-77
2023/07/29 02:03:42;;;;;;;4.83;1.70;;;19.80;99.90;;;;;;7301913;19;20214;-76
2023/07/29 02:06:08;;;;;;;5.70;1.60;;;19.90;99.90;;;;;;7279108;19;20673;-76
2023/07/29 02:08:33;;;;;;;7.43;1.90;;;19.90;99.90;;;;;;7279306;19;20179;-76
2023/07/29 02:10:59;;;;;;;4.77;2.10;;;19.80;99.90;;;;;;7279395;19;20194;-77
2023/07/29 02:13:25;;;;;;;7.90;1.90;;;19.70;99.90;;;;;;7279751;19;20548;-76
2023/07/29 02:15:51;;;;;;;4.33;2.00;;;19.60;99.90;;;;;;7277830;19;20184;-77
2023/07/29 02:18:17;;;;;;;6.83;2.30;;;19.60;99.90;;;;;;7278839;19;20183;-76
2023/07/29 02:20:48;;;;;;;5.60;2.13;;;19.50;99.90;;;;;;7294319;19;20191;-75
2023/07/29 02:23:16;;;;;;;5.37;1.90;;;19.50;99.90;;;;;;7279389;19;20185;-76
2023/07/29 02:25:42;;;;;;;4.40;2.00;;;19.60;99.90;;;;;;7301497;19;20191;-76
2023/07/29 02:28:08;;;;;;;5.03;2.13;;;19.60;99.90;;;;;;7279163;19;20184;-76
2023/07/29 02:30:34;;;;;;;5.93;2.30;;;19.60;99.90;;;;;;7277961;19;20533;-76
2023/07/29 02:33:01;;;;;;;5.67;1.93;;;19.50;99.90;;;;;;7281680;19;20188;-78
2023/07/29 02:35:27;;;;;;;4.50;1.83;;;19.50;99.90;;;;;;7286783;19;20199;-76
2023/07/29 02:37:53;;;;;;;4.43;1.93;;;19.60;99.90;;;;;;7285226;19;20652;-76
2023/07/29 02:40:22;;;;;;;4.10;2.00;;;19.60;99.90;;;;;;7286529;19;20266;-76
2023/07/29 02:42:48;;;;;;;6.57;2.10;;;19.60;99.90;;;;;;7286713;19;20192;-76
2023/07/29 02:45:14;;;;;;;5.10;1.90;;;19.60;99.90;;;;;;7293068;19;20190;-76
2023/07/29 02:47:39;;;;;;;6.23;2.10;;;19.50;99.90;;;;;;7307657;19;20998;-77
2023/07/29 02:50:06;;;;;;;5.20;1.90;;;19.50;99.90;;;;;;7286242;19;20194;-76
2023/07/29 02:52:31;;;;;;;5.03;2.20;;;19.50;99.90;;;;;;7287042;19;20194;-76
2023/07/29 02:54:57;;;;;;;7.30;1.87;;;19.50;99.90;;;;;;7285977;19;20187;-76
2023/07/29 02:57:23;;;;;;;5.40;2.00;;;19.50;99.90;;;;;;7284074;19;20239;-76
2023/07/29 02:59:48;;;;;;;5.97;2.20;;;19.50;99.90;;;;;;7283406;19;20750;-76
2023/07/29 03:02:16;;;;;;;6.00;2.20;;;19.40;99.90;;;;;;7288839;19;20195;-76
2023/07/29 03:04:42;;;;;;;4.10;1.93;;;19.30;99.90;;;;;;7308226;19;20618;-76
2023/07/29 03:07:07;;;;;;;4.37;1.97;;;19.30;99.90;;;;;;7285317;19;20224;-76
2023/07/29 03:09:34;;;;;;;7.13;2.30;;;19.30;99.90;;;;;;7281877;19;20630;-76
2023/07/29 03:12:02;;;;;;;3.97;2.00;;;19.00;99.90;;;;;;7281224;19;20588;-76
2023/07/29 03:14:28;;;;;;;3.97;2.03;;;19.00;99.90;;;;;;7283975;19;20252;-76
2023/07/29 03:16:54;;;;;;;6.57;2.00;;;19.00;99.90;;;;;;7284209;19;20261;-76
2023/07/29 03:19:20;;;;;;;5.37;2.10;;;19.00;99.90;;;;;;7282674;19;20189;-77
2023/07/29 03:21:46;;;;;;;7.03;2.23;;;19.00;99.90;;;;;;7279783;19;20208;-76
2023/07/29 03:24:12;;;;;;;5.17;1.80;;;18.90;99.90;;;;;;7303784;19;20570;-76
2023/07/29 03:26:38;;;;;;;7.13;2.03;;;18.90;99.90;;;;;;7282981;19;20561;-76
2023/07/29 03:29:03;;;;;;;7.80;2.33;;;19.00;99.90;;;;;;7281582;19;20533;-76
2023/07/29 03:31:30;;;;;;;4.67;2.03;;;19.10;99.90;;;;;;7280820;19;20786;-76
2023/07/29 03:33:56;;;;;;;7.93;2.30;;;19.10;99.90;;;;;;7286066;19;20195;-76
2023/07/29 03:36:21;;;;;;;7.97;2.40;;;19.10;99.90;;;;;;7284130;19;20195;-76
2023/07/29 03:38:47;;;;;;;6.23;2.20;;;19.10;99.90;;;;;;7284837;19;20188;-76
2023/07/29 03:41:13;;;;;;;6.03;2.47;;;19.00;99.90;;;;;;7300112;19;20773;-75
2023/07/29 03:43:38;;;;;;;5.03;2.10;;;19.00;99.90;;;;;;7294037;19;20181;-76
2023/07/29 03:46:05;;;;;;;6.90;2.13;;;19.00;99.90;;;;;;7282375;19;20658;-76
2023/07/29 03:48:31;;;;;;;4.53;2.10;;;18.90;99.90;;;;;;7284501;19;20256;-76
2023/07/29 03:50:57;;;;;;;5.23;2.47;;;19.00;99.90;;;;;;7281531;19;20266;-76
2023/07/29 03:53:23;;;;;;;7.47;2.20;;;19.10;99.90;;;;;;7282101;19;20200;-76
2023/07/29 03:55:50;;;;;;;6.23;2.20;;;19.20;99.90;;;;;;7282883;19;20217;-76
2023/07/29 03:58:15;;;;;;;6.87;2.40;;;19.30;99.90;;;;;;7282094;19;20181;-76
2023/07/29 04:00:41;;;;;;;4.13;1.80;;;19.30;99.90;;;;;;7304541;19;20646;-76
2023/07/29 04:03:08;;;;;;;6.23;2.20;;;19.40;99.90;;;;;;7279571;19;20197;-77
2023/07/29 04:05:34;;;;;;;2.73;1.80;;;19.30;99.90;;;;;;7283117;19;20194;-76
2023/07/29 04:07:59;;;;;;;3.33;2.00;;;19.40;99.90;;;;;;7283562;19;20188;-76
2023/07/29 04:10:25;;;;;;;6.70;2.23;;;19.40;99.90;;;;;;7281195;19;20199;-77
2023/07/29 04:12:51;;;;;;;4.80;1.93;;;19.40;99.90;;;;;;7281531;19;20185;-76
2023/07/29 04:15:17;;;;;;;7.20;2.20;;;19.30;99.90;;;;;;7283538;19;20201;-76
2023/07/29 04:17:42;;;;;;;5.47;2.07;;;19.30;99.90;;;;;;7304231;19;20221;-77
2023/07/29 04:20:10;;;;;;;5.43;2.03;;;19.30;99.90;;;;;;7283430;19;20215;-77
2023/07/29 04:22:35;;;;;;;3.33;1.80;;;19.30;99.90;;;;;;7282196;19;20192;-78
2023/07/29 04:25:01;;;;;;;7.17;1.90;;;19.30;99.90;;;;;;7282484;19;20523;-77
2023/07/29 04:27:27;;;;;;;6.20;2.10;;;19.40;99.90;;;;;;7284684;19;20211;-77
2023/07/29 04:29:52;;;;;;;4.43;1.77;;;19.40;99.90;;;;;;7283743;19;20245;-77
2023/07/29 04:32:18;;;;;;;6.77;1.97;;;19.30;99.90;;;;;;7283462;19;20717;-77
2023/07/29 04:34:44;;;;;;;7.43;2.20;;;19.30;99.90;;;;;;7293801;19;20191;-76
2023/07/29 04:37:09;;;;;;;3.87;1.83;;;19.40;99.90;;;;;;7301761;19;20218;-76
2023/07/29 04:39:35;;;;;;;5.13;2.07;;;19.40;99.90;;;;;;7283781;19;20652;-77
2023/07/29 04:42:01;;;;;;;5.40;2.00;;;19.40;99.90;;;;;;7281855;19;20193;-77
2023/07/29 04:44:26;;;;;;;5.67;2.10;;;19.40;99.90;;;;;;7283269;19;20186;-77
2023/07/29 04:46:52;;;;;;;6.07;1.87;;;19.40;99.90;;;;;;7283496;19;20254;-76
2023/07/29 04:49:18;;;;;;;4.50;1.80;;;19.30;99.90;;;;;;7282169;19;20710;-76
2023/07/29 04:51:44;;;;;;;7.10;2.07;;;19.40;99.90;;;;;;7295144;19;20200;-76
2023/07/29 04:54:09;;;;;;;7.03;1.90;;;19.50;99.90;;;;;;7300303;19;20179;-77
2023/07/29 04:56:36;;;;;;;7.67;2.10;;;19.50;99.90;;;;;;7278717;19;20241;-77
2023/07/29 04:59:01;;;;;;;6.43;1.83;;;19.50;99.90;;;;;;7282863;19;20194;-77
2023/07/29 05:01:27;;;;;;;6.50;1.80;;;19.50;99.90;;;;;;7282032;19;20202;-77
2023/07/29 05:03:53;;;;;;;6.00;1.60;;;19.50;99.90;;;;;;7281000;19;20266;-77
2023/07/29 05:06:18;;;;;;;5.93;1.77;;;19.50;99.90;;;;;;7283191;19;20311;-76
2023/07/29 05:08:44;;;;;;;4.93;1.60;;;19.40;99.90;;;;;;7289891;19;20217;-76
2023/07/29 05:11:10;;;;;;;8.63;1.90;;;19.40;99.90;;;;;;7304329;19;20203;-77
2023/07/29 05:13:36;;;;;;;6.77;1.80;;;20.00;99.90;;;;;;7281216;19;20193;-76
2023/07/29 05:16:03;;;;;;;5.30;2.00;;;20.70;99.90;;;;;;7281556;19;20536;-76
2023/07/29 05:18:28;;;;;;;5.23;1.27;;;21.90;99.90;;;;;;7281087;19;20609;-76
2023/07/29 05:20:54;;;;;;;3.77;1.40;;;22.60;99.90;;;;;;7281455;19;20198;-76
2023/07/29 05:23:20;;;;;;;3.43;1.30;;;24.20;99.90;;;;;;7281418;19;20268;-77
2023/07/29 05:25:46;;;;;;;3.80;1.50;;;25.40;99.90;;;;;;7280034;19;20197;-76
2023/07/29 05:28:11;;;;;;;4.97;1.27;;;24.90;99.90;;;;;;7303305;19;20210;-77
2023/07/29 05:30:39;;;;;;;8.03;1.40;;;24.40;99.90;;;;;;7280975;19;20671;-77
2023/07/29 05:33:08;;;;;;;3.73;1.00;;;23.80;99.90;;;;;;7278824;19;20220;-76
2023/07/29 05:35:34;;;;;;;6.03;1.43;;;23.30;99.90;;;;;;7278533;19;20658;-77
2023/07/29 05:37:59;;;;;;;6.23;1.13;;;23.70;99.90;;;;;;7279528;19;20196;-76
2023/07/29 05:40:25;;;;;;;5.00;1.40;;;25.00;99.90;;;;;;7280452;19;20189;-77
2023/07/29 05:42:52;;;;;;;4.87;1.20;;;25.60;99.90;;;;;;7278110;19;20252;-77
2023/07/29 05:45:17;;;;;;;5.73;1.20;;;26.00;99.90;;;;;;7278710;19;20292;-77
2023/07/29 05:47:43;;;;;;;4.80;1.20;;;26.40;99.90;;;;;;7300585;19;20212;-77
2023/07/29 05:50:09;;;;;;;2.73;1.27;;;25.60;99.90;;;;;;7280356;19;20181;-77
2023/07/29 05:52:35;;;;;;;2.10;1.03;;;24.60;99.90;;;;;;7279374;19;20216;-77
2023/07/29 05:55:01;;;;;;;3.40;1.17;;;23.60;99.90;;;;;;7278833;19;20200;-77
2023/07/29 05:57:27;;;;;;;5.17;1.30;;;23.00;99.90;;;;;;7278003;19;20651;-77
2023/07/29 05:59:53;;;;;;;5.40;1.20;;;22.60;99.90;;;;;;7279284;19;20273;-76
2023/07/29 06:02:20;;;;;;;3.07;1.27;;;22.50;99.90;;;;;;7279281;19;20197;-77
2023/07/29 06:04:45;;;;;;;3.43;1.37;;;22.60;99.90;;;;;;7280670;19;20288;-76
2023/07/29 06:07:11;;;;;;;3.90;1.33;;;22.50;99.90;;;;;;7298105;19;20201;-77
2023/07/29 06:09:37;;;;;;;4.23;1.37;;;22.50;99.90;;;;;;7279533;19;20207;-77
2023/07/29 06:12:03;;;;;;;4.17;1.40;;;22.30;99.90;;;;;;7278480;19;20200;-77
2023/07/29 06:14:28;;;;;;;3.93;1.20;;;22.30;99.90;;;;;;7277276;19;20185;-77
2023/07/29 06:16:54;;;;;;;6.03;1.33;;;22.10;99.90;;;;;;7276310;19;20224;-76
2023/07/29 06:19:20;;;;;;;10.33;2.30;;;22.10;99.90;;;;;;7278271;19;20197;-76
2023/07/29 06:21:46;;;;;;;3.53;1.10;;;22.30;99.90;;;;;;7280319;19;20649;-76
2023/07/29 06:24:12;;;;;;;2.40;1.13;;;22.50;99.90;;;;;;7299734;19;20211;-77
2023/07/29 06:26:38;;;;;;;7.13;1.40;;;22.70;99.90;;;;;;7279428;19;20244;-77
2023/07/29 06:29:04;;;;;;;4.00;1.27;;;22.80;99.90;;;;;;7277941;19;20768;-77
2023/07/29 06:31:29;;;;;;;3.30;1.10;;;22.50;99.90;;;;;;7278202;19;20208;-77
2023/07/29 06:33:55;;;;;;;2.27;1.10;;;22.50;99.90;;;;;;7276675;19;20531;-77
2023/07/29 06:36:21;;;;;;;3.23;1.10;;;22.60;99.90;;;;;;7278319;19;20192;-76
2023/07/29 06:38:47;;;;;;;4.93;1.00;;;22.60;99.90;;;;;;7276479;19;20309;-76
2023/07/29 06:41:12;;;;;;;3.00;1.17;;;22.70;99.90;;;;;;7300332;19;20189;-76
2023/07/29 06:43:38;;;;;;;5.80;1.50;;;22.80;99.90;;;;;;7277725;19;20295;-76
2023/07/29 06:46:04;;;;;;;5.50;1.20;;;22.90;99.90;;;;;;7277400;19;20201;-76
2023/07/29 06:48:30;;;;;;;5.40;1.20;;;23.00;99.90;;;;;;7275896;19;20191;-76
2023/07/29 06:51:00;;;;;;;4.27;1.20;;;23.00;99.90;;;;;;7278554;19;20185;-77
2023/07/29 06:53:28;;;;;;;5.73;1.30;;;23.00;99.90;;;;;;7278476;19;20561;-77
2023/07/29 06:55:54;;;;;;;2.73;1.27;;;22.70;99.90;;;;;;7277820;19;20264;-77
2023/07/29 06:58:20;;;;;;;5.43;1.30;;;22.50;99.90;;;;;;7278587;19;20226;-77
2023/07/29 07:00:46;;;;;;;3.47;1.30;;;22.50;99.90;;;;;;7279639;19;20220;-76
2023/07/29 07:03:12;;;;;;;5.60;1.30;;;22.40;99.90;;;;;;7301128;19;20196;-77
2023/07/29 07:05:37;;;;;;;3.70;1.40;;;22.30;99.90;;;;;;7279021;19;20189;-78
2023/07/29 07:08:03;;;;;;;5.90;1.63;;;22.20;99.90;;;;;;7275877;19;20198;-76
2023/07/29 07:10:29;;;;;;;5.37;1.33;;;22.20;99.90;;;;;;7276413;19;20185;-77
2023/07/29 07:12:55;;;;;;;4.53;1.60;;;22.30;99.90;;;;;;7278041;19;20185;-77
2023/07/29 07:15:20;;;;;;;4.40;1.10;;;22.50;99.90;;;;;;7278603;19;20193;-76
2023/07/29 07:17:46;;;;;;;3.77;1.20;;;22.70;99.90;;;;;;7276668;19;20205;-77
2023/07/29 07:20:12;;;;;;;5.33;1.20;;;22.60;99.90;;;;;;7303278;19;20188;-77
2023/07/29 07:22:39;;;;;;;2.53;1.07;;;22.60;99.90;;;;;;7285962;19;20185;-77
2023/07/29 07:25:05;;;;;;;3.73;1.30;;;22.40;99.90;;;;;;7285262;19;20300;-78
2023/07/29 07:27:30;;;;;;;4.07;1.30;;;22.30;99.90;;;;;;7284653;19;20675;-77
2023/07/29 07:29:56;;;;;;;2.30;1.27;;;22.30;99.90;;;;;;7282797;19;20188;-77
2023/07/29 07:32:22;;;;;;;4.17;1.30;;;22.30;99.90;;;;;;7286469;19;20726;-77
2023/07/29 07:34:47;;;;;;;4.03;1.43;;;22.30;99.90;;;;;;7286025;19;20197;-77
2023/07/29 07:37:13;;;;;;;5.37;1.40;;;22.30;99.90;;;;;;7307905;19;20744;-77
2023/07/29 07:39:39;;;;;;;6.00;1.30;;;22.30;99.90;;;;;;7285447;19;20184;-78
2023/07/29 07:42:05;;;;;;;4.17;1.40;;;22.40;99.90;;;;;;7285442;19;20233;-77
2023/07/29 07:44:30;;;;;;;2.33;1.20;;;22.70;99.90;;;;;;7285526;19;20184;-77
2023/07/29 07:46:56;;;;;;;3.97;1.30;;;23.00;99.90;;;;;;7284525;19;20673;-77
2023/07/29 07:49:22;;;;;;;5.17;1.10;;;23.40;99.90;;;;;;7281901;19;20293;-77
2023/07/29 07:51:48;;;;;;;3.47;1.13;;;23.70;99.90;;;;;;7284579;19;20397;-77
2023/07/29 07:54:14;;;;;;;4.60;1.43;;;24.50;99.90;;;;;;7305873;19;20673;-75
2023/07/29 07:56:39;;;;;;;3.30;1.27;;;25.00;99.90;;;;;;7283138;19;21015;-77
2023/07/29 07:59:05;;;;;;;4.33;1.20;;;25.60;99.90;;;;;;7281849;19;20186;-77
2023/07/29 08:01:35;;;;;;;4.30;1.20;;;26.70;99.90;;;;;;7282753;19;20202;-77
2023/07/29 08:04:01;;;;;;;3.63;1.20;;;27.70;99.90;;;;;;7284561;19;20203;-78
2023/07/29 08:06:27;;;;;;;3.58;1.10;;;28.70;99.90;;;;;;7285134;19;20193;-78
2023/07/29 08:08:53;;;;;;;3.30;0.80;;;30.30;99.90;;;;;;7283655;19;20548;-77
2023/07/29 08:11:18;;;;;;;3.03;0.98;;;32.40;99.90;;;;;;7282011;19;20213;-77
2023/07/29 08:13:44;;;;;;;3.00;0.90;;;33.50;99.90;;;;;;7305583;19;20189;-77
2023/07/29 08:16:10;;;;;;;5.20;1.10;;;33.00;99.90;;;;;;7284662;19;20189;-78
2023/07/29 08:18:35;;;;;;;7.43;1.00;;;31.80;99.90;;;;;;7281441;19;20698;-78
2023/07/29 08:21:02;;;;;;;3.63;0.90;;;30.40;99.90;;;;;;7281664;19;20196;-77
2023/07/29 08:23:30;;;;;;;3.50;1.13;;;29.90;99.90;;;;;;7282943;19;20197;-77
2023/07/29 08:26:01;;;;;;;1.83;1.00;;;29.40;99.90;;;;;;7283694;19;20192;-77
2023/07/29 08:28:45;;;;;;;2.97;1.17;;;29.00;99.90;;;;;;7283834;19;20193;-77
2023/07/29 08:31:11;;;;;;;4.05;1.38;;;28.70;99.90;;;;;;7280944;19;20201;-78
2023/07/29 08:33:36;;;;;;;1.75;0.93;;;28.70;99.90;;;;;;7285990;19;20215;-77
2023/07/29 08:36:03;;;;;;;2.28;1.05;;;29.80;99.90;;;;;;7284847;19;20542;-78
2023/07/29 08:38:28;;;;;;;2.75;1.00;;;30.60;99.90;;;;;;7283275;19;20181;-78
2023/07/29 08:41:06;;;;;;;4.35;1.15;;;30.30;99.90;;;;;;7282151;19;20682;-79
2023/07/29 08:43:32;;;;;;;3.58;1.00;;;30.40;99.90;;;;;;7280135;19;20192;-77
2023/07/29 08:46:01;;;;;;;2.45;1.10;;;30.00;99.90;;;;;;7281869;19;20308;-77
2023/07/29 08:48:41;;;;;;;3.35;1.00;;;30.00;99.90;;;;;;7282331;19;20936;-77
2023/07/29 08:51:10;;;;;;;2.63;0.95;;;29.90;99.90;;;;;;7280219;19;20221;-77
2023/07/29 08:53:37;;;;;;;4.25;1.10;;;31.50;99.90;;;;;;7283406;19;20182;-77
2023/07/29 08:56:02;;;;;;;3.05;0.88;;;33.50;99.60;;;;;;7282941;19;20193;-77
2023/07/29 08:58:29;;;;;;;2.40;1.10;;;33.00;96.70;;;;;;7282018;19;20197;-77
2023/07/29 09:00:55;;;;;;;3.97;1.08;;;31.90;97.80;;;;;;7282321;19;20260;-78
2023/07/29 09:03:21;;;;;;;2.42;0.93;;;32.30;98.40;;;;;;7279361;19;20767;-78
2023/07/29 09:05:47;;;;;;;1.33;0.90;;;33.80;94.80;;;;;;7283035;19;20199;-77
2023/07/29 09:08:14;;;;;;;2.13;0.90;;;33.60;93.90;;;;;;7305329;19;20640;-77
2023/07/29 09:10:40;;;;;;;9.82;1.88;;;32.90;95.90;;;;;;7283109;19;20180;-78
2023/07/29 09:13:07;;;;;;;3.67;1.20;;;33.10;93.60;;;;;;7282271;19;20181;-77
2023/07/29 09:15:34;;;;;;;2.05;1.10;;;33.00;94.80;;;;;;7281925;19;20256;-78
2023/07/29 09:18:10;;;;;;;2.42;1.15;;;32.00;95.90;;;;;;7284546;19;20533;-77
2023/07/29 09:20:36;;;;;;;4.63;1.35;;;31.40;98.10;;;;;;7282999;19;20211;-77
2023/07/29 09:23:01;;;;;;;3.15;1.33;;;31.10;99.90;;;;;;7281794;19;20968;-77
2023/07/29 09:25:29;;;;;;;2.30;1.05;;;30.70;99.50;;;;;;7283017;19;20192;-77
2023/07/29 09:28:01;;;;;;;4.70;1.50;;;30.60;99.90;;;;;;7282211;19;20181;-78
2023/07/29 09:30:28;;;;;;;2.40;1.13;;;29.70;99.90;;;;;;7284386;19;20545;-78
2023/07/29 09:32:57;;;;;;;4.25;1.30;;;29.40;99.90;;;;;;7283588;19;20600;-77
2023/07/29 09:35:25;;;;;;;2.42;1.10;;;29.40;99.90;;;;;;7285021;19;20185;-77
2023/07/29 09:37:51;;;;;;;2.95;1.27;;;29.30;99.90;;;;;;7283155;19;20656;-77
2023/07/29 09:40:18;;;;;;;2.38;1.02;;;29.20;99.90;;;;;;7282831;19;20244;-77
2023/07/29 09:42:56;;;;;;;4.60;1.48;;;29.50;99.90;;;;;;7300293;19;20185;-77
2023/07/29 09:45:23;;;;;;;3.75;1.30;;;29.80;99.90;;;;;;7179835;19;2004834;-77
2023/07/29 09:47:49;;;;;;;2.63;1.40;;;31.10;99.90;;;;;;7280446;19;20260;-77
2023/07/29 09:50:15;;;;;;;2.88;1.20;;;32.20;99.90;;;;;;7300157;19;20929;-76
2023/07/29 09:52:42;;;;;;;2.20;1.10;;;31.80;99.90;;;;;;7295954;19;20656;-79
2023/07/29 09:55:10;;;;;;;4.85;1.52;;;31.50;99.90;;;;;;7280134;19;20252;-77
2023/07/29 09:57:38;;;;;;;1.90;1.00;;;32.20;99.90;;;;;;7280367;19;20189;-77
2023/07/29 10:00:10;;;;;;;3.28;1.00;;;32.70;99.90;;;;;;7280419;19;20196;-77
2023/07/29 10:02:37;;;;;;;3.28;1.30;;;32.00;99.90;;;;;;7277166;19;20190;-79
2023/07/29 10:05:04;;;;;;;3.25;1.75;;;31.30;99.90;;;;;;7279407;19;20180;-78
2023/07/29 10:07:31;;;;;;;3.30;1.63;;;29.80;99.90;;;;;;7281069;19;20671;-78
2023/07/29 10:09:59;;;;;;;3.20;1.40;;;28.90;99.90;;;;;;7282169;19;20196;-77
2023/07/29 10:12:24;;;;;;;3.85;1.48;;;28.20;99.90;;;;;;7280187;19;20191;-77
2023/07/29 10:14:50;;;;;;;3.72;1.60;;;27.40;99.90;;;;;;7279334;19;20294;-78
2023/07/29 10:17:16;;;;;;;5.32;1.35;;;26.80;99.90;;;;;;7287129;19;20656;-77
2023/07/29 10:19:44;;;;;;;5.53;1.58;;;26.20;99.90;;;;;;7303733;19;20703;-78
2023/07/29 10:22:13;;;;;;;3.90;1.50;;;25.80;99.90;;;;;;7283013;19;20260;-77
2023/07/29 10:24:42;;;;;;;4.43;1.50;;;25.80;99.90;;;;;;7279962;19;20189;-78
2023/07/29 10:27:11;;;;;;;3.53;1.40;;;25.90;99.90;;;;;;7280152;19;20196;-78
2023/07/29 10:29:41;;;;;;;2.95;1.40;;;27.40;99.90;;;;;;7278124;19;20948;-78
2023/07/29 10:32:08;;;;;;;3.38;1.33;;;28.20;99.90;;;;;;7280327;19;20185;-78
2023/07/29 10:34:35;;;;;;;3.75;1.38;;;28.60;99.90;;;;;;7279839;19;20201;-78
2023/07/29 10:37:01;;;;;;;3.47;1.60;;;28.60;99.90;;;;;;7279039;19;20193;-77
2023/07/29 10:39:27;;;;;;;3.72;1.33;;;28.40;99.90;;;;;;7280412;19;20215;-78
2023/07/29 10:42:05;;;;;;;3.50;1.60;;;28.00;99.90;;;;;;7280259;19;20219;-78
2023/07/29 10:44:39;;;;;;;5.63;1.92;;;27.60;99.90;;;;;;7280387;19;20196;-77
2023/07/29 10:47:19;;;;;;;5.50;2.15;;;27.00;99.90;;;;;;7278446;19;20212;-78
2023/07/29 10:49:46;;;;;;;5.63;2.28;;;26.60;99.90;;;;;;7279913;19;20196;-76
2023/07/29 10:52:17;;;;;;;4.43;2.00;;;26.30;99.90;;;;;;7280998;19;20198;-78
2023/07/29 10:54:43;;;;;;;4.38;2.35;;;26.10;99.90;;;;;;7284396;19;20213;-77
2023/07/29 10:57:15;;;;;;;4.90;2.70;;;26.00;99.90;;;;;;7287070;19;20948;-78
2023/07/29 10:59:54;;;;;;;6.40;2.70;;;25.90;99.90;;;;;;7287135;19;20620;-78
2023/07/29 11:02:19;;;;;;;5.43;2.40;;;25.80;99.90;;;;;;7267404;19;20200;-78
2023/07/29 11:04:50;;;;;;;4.50;2.17;;;25.60;99.90;;;;;;7305174;19;20663;-77
2023/07/29 11:07:16;;;;;;;4.10;2.10;;;25.60;99.90;;;;;;7295257;19;20201;-77
2023/07/29 11:09:48;;;;;;;3.37;2.00;;;25.10;99.90;;;;;;7308209;19;20189;-77
2023/07/29 11:12:34;;;;;;;3.83;1.83;;;25.00;99.90;;;;;;7287077;19;20277;-76
2023/07/29 11:15:10;;;;;;;3.57;1.97;;;24.90;99.90;;;;;;7184464;19;2004622;-77
2023/07/29 11:17:41;;;;;;;6.10;2.03;;;24.60;99.90;;;;;;7285993;19;20201;-77
2023/07/29 11:20:08;;;;;;;4.33;1.80;;;24.40;99.90;;;;;;7285835;19;20185;-78
2023/07/29 11:22:34;;;;;;;3.27;1.90;;;24.40;99.90;;;;;;7286118;19;20260;-77
2023/07/29 11:25:00;;;;;;;4.60;2.00;;;24.30;99.90;;;;;;7285847;19;20189;-77
2023/07/29 11:27:26;;;;;;;4.77;2.10;;;24.20;99.90;;;;;;7285797;19;20630;-77
2023/07/29 11:30:05;;;;;;;4.87;1.90;;;24.20;99.90;;;;;;7284937;19;20188;-77
2023/07/29 11:32:30;;;;;;;4.70;2.00;;;24.20;99.90;;;;;;7285687;19;20184;-77
2023/07/29 11:34:57;;;;;;;4.23;2.00;;;24.50;99.90;;;;;;7286604;19;20222;-77
2023/07/29 11:37:22;;;;;;;4.57;2.23;;;24.80;99.90;;;;;;7285836;19;20180;-78
2023/07/29 11:39:48;;;;;;;3.90;1.60;;;25.30;99.90;;;;;;7283541;19;20214;-77
2023/07/29 11:42:15;;;;;;;3.15;1.70;;;26.80;99.90;;;;;;7307667;19;20185;-78
2023/07/29 11:44:41;;;;;;;3.83;1.50;;;29.10;99.90;;;;;;7282920;19;20189;-77
2023/07/29 11:47:11;;;;;;;2.33;1.48;;;30.10;99.90;;;;;;7284989;19;20206;-78
2023/07/29 11:49:39;;;;;;;2.45;1.48;;;32.30;99.90;;;;;;7282812;19;20256;-78
2023/07/29 11:52:09;;;;;;;3.38;1.48;;;32.90;99.90;;;;;;7284640;19;20907;-78
2023/07/29 11:54:37;;;;;;;4.05;1.67;;;33.10;99.90;;;;;;7283252;19;20278;-78
2023/07/29 11:57:08;;;;;;;2.13;1.50;;;32.00;99.90;;;;;;7285463;19;20177;-78
2023/07/29 11:59:37;;;;;;;2.10;1.60;;;31.10;99.90;;;;;;7283643;19;20687;-78
2023/07/29 12:02:10;;;;;;;3.22;1.70;;;30.30;99.90;;;;;;7286028;19;20645;-78
2023/07/29 12:04:38;;;;;;;3.88;1.60;;;29.50;99.90;;;;;;7284437;19;20233;-78
2023/07/29 12:07:05;;;;;;;3.33;1.70;;;28.90;99.90;;;;;;7283390;19;20196;-78
2023/07/29 12:09:31;;;;;;;5.72;1.73;;;28.50;99.90;;;;;;7283196;19;20185;-78
2023/07/29 12:11:57;;;;;;;3.78;1.63;;;28.10;99.90;;;;;;7284272;19;20196;-78
2023/07/29 12:14:26;;;;;;;3.85;1.73;;;27.90;99.90;;;;;;7286309;19;20199;-77
2023/07/29 12:16:53;;;;;;;9.98;3.28;;;27.70;99.90;;;;;;7285009;19;20185;-77
2023/07/29 12:19:21;;;;;;;8.18;2.33;;;27.30;99.90;;;;;;7283028;19;20197;-77
2023/07/29 12:21:48;;;;;;;11.95;2.83;;;26.50;99.90;;;;;;7285620;19;20207;-78
2023/07/29 12:24:14;;;;;;;5.78;2.13;;;25.80;99.90;;;;;;7306925;19;20185;-78
2023/07/29 12:26:41;;;;;;;7.07;2.13;;;24.90;99.90;;;;;;7285972;19;20294;-77
2023/07/29 12:29:20;;;;;;;3.93;2.00;;;24.10;99.90;;;;;;7284324;19;20249;-77
2023/07/29 12:31:46;;;;;;;5.57;2.30;;;24.10;99.90;;;;;;7271373;19;20189;-76
2023/07/29 12:34:21;;;;;;;4.20;2.47;;;24.40;99.90;;;;;;7304108;19;20759;-77
2023/07/29 12:36:49;;;;;;;4.53;2.30;;;25.10;99.90;;;;;;7262654;19;20692;-77
2023/07/29 12:39:29;;;;;;;6.53;2.30;;;25.60;99.90;;;;;;7306658;19;20191;-77
2023/07/29 12:41:56;;;;;;;4.93;2.30;;;26.00;99.90;;;;;;7181225;19;2005157;-77
2023/07/29 12:44:40;;;;;;;6.05;2.05;;;26.30;99.90;;;;;;7283449;19;20184;-77
2023/07/29 12:47:08;;;;;;;4.50;2.35;;;26.00;99.90;;;;;;7284300;19;20201;-77